createdAt,value
2023-02-25T00:00:00.196Z,93820.13
2023-02-25T00:03:02.391Z,93831.91
2023-02-25T00:06:08.596Z,93851.31
2023-02-25T00:09:10.420Z,93859.88
2023-02-25T00:12:22.154Z,93884.19
2023-02-25T00:15:27.015Z,93906.25
2023-02-25T00:18:29.144Z,93923.34
2023-02-25T00:21:30.983Z,93922.50
2023-02-25T00:24:33.772Z,93926.22
2023-02-25T00:27:36.486Z,93931.50
2023-02-25T00:30:40.793Z,93936.09
2023-02-25T00:33:42.860Z,93950.53
2023-02-25T00:36:45.130Z,93942.84
2023-02-25T00:39:47.035Z,93938.72
2023-02-25T00:42:50.167Z,93951.78
2023-02-25T00:45:53.377Z,93949.22
2023-02-25T00:48:55.492Z,93970.75
2023-02-25T00:51:59.937Z,93976.94
2023-02-25T00:55:02.218Z,93974.84
2023-02-25T00:58:04.151Z,93976.19
2023-02-25T01:01:17.802Z,93973.34
2023-02-25T01:04:19.676Z,93969.47
2023-02-25T01:07:24.126Z,93981.19
2023-02-25T01:10:25.887Z,93995.13
2023-02-25T01:13:28.228Z,93991.78
2023-02-25T01:16:33.297Z,93999.91
2023-02-25T01:19:35.905Z,93999.03
2023-02-25T01:22:38.184Z,94014.97
2023-02-25T01:25:40.538Z,94004.66
2023-02-25T01:28:43.740Z,94001.66
2023-02-25T01:31:52.662Z,94012.22
2023-02-25T01:34:54.499Z,94007.00
2023-02-25T01:37:59.645Z,93988.94
2023-02-25T01:41:02.228Z,93995.16
2023-02-25T01:44:08.075Z,94012.38
2023-02-25T01:47:20.050Z,94016.72
2023-02-25T01:50:27.238Z,94040.16
2023-02-25T01:53:33.371Z,94039.38
2023-02-25T01:56:38.199Z,94036.19
2023-02-25T01:59:42.188Z,94042.31
2023-02-25T02:02:49.151Z,94040.16
2023-02-25T02:06:01.584Z,94016.78
2023-02-25T02:09:05.481Z,94021.72
2023-02-25T02:12:08.253Z,94020.53
2023-02-25T02:15:12.924Z,94036.31
2023-02-25T02:18:18.193Z,94042.66
2023-02-25T02:21:49.585Z,94039.59
2023-02-25T02:25:21.170Z,94039.00
2023-02-25T02:28:57.926Z,94044.88
2023-02-25T02:32:16.379Z,94038.50
2023-02-25T02:35:23.367Z,94043.13
2023-02-25T02:38:36.131Z,94039.09
2023-02-25T02:41:46.381Z,94044.28
2023-02-25T02:44:56.274Z,94043.97
2023-02-25T02:48:03.462Z,94037.75
2023-02-25T02:51:14.620Z,94050.25
2023-02-25T02:54:20.090Z,94027.66
2023-02-25T02:57:24.404Z,94034.91
2023-02-25T03:00:33.655Z,94030.84
2023-02-25T03:03:41.231Z,94036.34
2023-02-25T03:06:48.821Z,94042.19
2023-02-25T03:09:55.568Z,94038.28
2023-02-25T03:12:57.599Z,94044.22
2023-02-25T03:16:01.762Z,94047.25
2023-02-25T03:19:08.724Z,94044.03
2023-02-25T03:22:14.153Z,94052.53
2023-02-25T03:25:24.082Z,94061.91
2023-02-25T03:28:30.415Z,94064.69
2023-02-25T03:31:38.001Z,94070.88
2023-02-25T03:34:47.009Z,94065.59
2023-02-25T03:37:52.021Z,94059.66
2023-02-25T03:40:57.896Z,94067.84
2023-02-25T03:44:02.865Z,94074.00
2023-02-25T03:47:11.009Z,94074.13
2023-02-25T03:50:19.172Z,94077.13
2023-02-25T03:53:22.022Z,94067.38
2023-02-25T03:56:24.377Z,94070.00
2023-02-25T03:59:26.697Z,94068.69
2023-02-25T04:02:33.220Z,94074.75
2023-02-25T04:05:36.757Z,94078.50
2023-02-25T04:08:39.281Z,94078.25
2023-02-25T04:11:41.599Z,94080.16
2023-02-25T04:14:43.432Z,94078.06
2023-02-25T04:17:45.836Z,94067.44
2023-02-25T04:20:49.580Z,94069.16
2023-02-25T04:23:51.376Z,94071.00
2023-02-25T04:26:53.240Z,94075.81
2023-02-25T04:29:55.569Z,94066.34
2023-02-25T04:32:57.350Z,94083.25
2023-02-25T04:36:00.764Z,94093.38
2023-02-25T04:39:04.888Z,94097.16
2023-02-25T04:42:07.090Z,94083.06
2023-02-25T04:45:11.536Z,94077.09
2023-02-25T04:48:13.359Z,94082.81
2023-02-25T04:51:16.749Z,94080.63
2023-02-25T04:54:19.388Z,94083.25
2023-02-25T04:57:21.187Z,94080.31
2023-02-25T05:00:26.291Z,94074.53
2023-02-25T05:03:28.187Z,94091.03
2023-02-25T05:06:31.512Z,94084.84
2023-02-25T05:09:33.425Z,94087.38
2023-02-25T05:12:35.301Z,94082.78
2023-02-25T05:15:38.336Z,94094.31
2023-02-25T05:18:41.549Z,94098.63
2023-02-25T05:21:45.197Z,94097.94
2023-02-25T05:24:46.944Z,94105.25
2023-02-25T05:27:48.757Z,94104.13
2023-02-25T05:30:53.404Z,94098.31
2023-02-25T05:33:55.271Z,94087.72
2023-02-25T05:37:00.979Z,94094.81
2023-02-25T05:40:03.186Z,94078.47
2023-02-25T05:43:05.304Z,94103.94
2023-02-25T05:46:08.715Z,94114.13
2023-02-25T05:49:10.915Z,94106.34
2023-02-25T05:52:15.016Z,94112.63
2023-02-25T05:55:16.988Z,94106.31
2023-02-25T05:58:18.956Z,94092.28
2023-02-25T06:01:24.515Z,94132.16
2023-02-25T06:04:27.688Z,94124.16
2023-02-25T06:07:32.094Z,94126.88
2023-02-25T06:10:34.779Z,94140.53
2023-02-25T06:13:36.934Z,94137.13
2023-02-25T06:16:39.503Z,94145.25
2023-02-25T06:19:43.495Z,94146.34
2023-02-25T06:22:47.224Z,94180.06
2023-02-25T06:25:49.052Z,94153.03
2023-02-25T06:28:52.564Z,94161.69
2023-02-25T06:31:57.968Z,94166.88
2023-02-25T06:35:00.753Z,94180.81
2023-02-25T06:38:04.187Z,94179.91
2023-02-25T06:41:07.673Z,94184.09
2023-02-25T06:44:09.447Z,94198.78
2023-02-25T06:47:12.252Z,94214.59
2023-02-25T06:50:14.087Z,94198.84
2023-02-25T06:53:18.284Z,94205.06
2023-02-25T06:56:20.466Z,94209.97
2023-02-25T06:59:22.729Z,94205.28
2023-02-25T07:02:26.753Z,94200.50
2023-02-25T07:05:32.285Z,94207.50
2023-02-25T07:08:36.833Z,94219.75
2023-02-25T07:11:38.779Z,94212.56
2023-02-25T07:14:40.567Z,94200.50
2023-02-25T07:17:43.001Z,94210.88
2023-02-25T07:20:44.812Z,94210.78
2023-02-25T07:23:49.007Z,94215.06
2023-02-25T07:26:50.796Z,94215.84
2023-02-25T07:29:53.707Z,94220.53
2023-02-25T07:32:58.562Z,94214.66
2023-02-25T07:36:01.567Z,94214.97
2023-02-25T07:39:06.036Z,94213.44
2023-02-25T07:42:08.243Z,94218.44
2023-02-25T07:45:11.649Z,94216.00
2023-02-25T07:48:13.435Z,94213.66
2023-02-25T07:51:17.317Z,94231.28
2023-02-25T07:54:21.624Z,94236.53
2023-02-25T07:57:23.782Z,94233.03
2023-02-25T08:00:25.974Z,94237.25
2023-02-25T08:03:28.046Z,94236.75
2023-02-25T08:06:30.334Z,94230.19
2023-02-25T08:09:34.568Z,94230.72
2023-02-25T08:12:39.146Z,94227.97
2023-02-25T08:15:42.276Z,94221.69
2023-02-25T08:18:45.355Z,94246.88
2023-02-25T08:21:47.109Z,94221.63
2023-02-25T08:24:51.623Z,94219.03
2023-02-25T08:27:53.763Z,94217.59
2023-02-25T08:30:57.754Z,94214.19
2023-02-25T08:34:02.593Z,94222.13
2023-02-25T08:37:04.958Z,94224.09
2023-02-25T08:40:10.013Z,94221.06
2023-02-25T08:43:13.215Z,94223.13
2023-02-25T08:46:18.410Z,94225.91
2023-02-25T08:49:21.147Z,94231.66
2023-02-25T08:52:22.998Z,94222.00
2023-02-25T08:55:26.550Z,94219.47
2023-02-25T08:58:28.310Z,94227.50
2023-02-25T09:01:30.466Z,94226.88
2023-02-25T09:04:35.570Z,94222.34
2023-02-25T09:07:37.459Z,94231.72
2023-02-25T09:10:49.795Z,94223.09
2023-02-25T09:13:52.723Z,94227.69
2023-02-25T09:16:54.752Z,94226.56
2023-02-25T09:19:56.989Z,94232.31
2023-02-25T09:22:59.156Z,94227.97
2023-02-25T09:26:07.062Z,94235.56
2023-02-25T09:29:09.115Z,94242.06
2023-02-25T09:32:20.470Z,94248.81
2023-02-25T09:35:23.072Z,94238.59
2023-02-25T09:38:26.563Z,94239.88
2023-02-25T09:41:33.761Z,94229.16
2023-02-25T09:44:39.254Z,94246.81
2023-02-25T09:47:47.990Z,94246.41
2023-02-25T09:50:53.257Z,94248.16
2023-02-25T09:54:03.317Z,94232.41
2023-02-25T09:57:07.535Z,94228.09
2023-02-25T10:00:18.248Z,94227.84
2023-02-25T10:03:25.426Z,94241.69
2023-02-25T10:06:34.336Z,94227.56
2023-02-25T10:09:44.969Z,94232.34
2023-02-25T10:12:56.609Z,94229.47
2023-02-25T10:16:12.691Z,94233.88
2023-02-25T10:19:31.990Z,94239.88
2023-02-25T10:22:45.022Z,94238.81
2023-02-25T10:25:56.130Z,94230.09
2023-02-25T10:29:05.621Z,94235.13
2023-02-25T10:32:16.888Z,94236.13
2023-02-25T10:35:26.120Z,94228.31
2023-02-25T10:38:29.012Z,94231.78
2023-02-25T10:41:32.330Z,94231.72
2023-02-25T10:44:35.851Z,94230.72
2023-02-25T10:47:45.162Z,94222.81
2023-02-25T10:51:02.865Z,94227.34
2023-02-25T10:54:07.073Z,94213.66
2023-02-25T10:57:16.329Z,94219.06
2023-02-25T11:00:27.864Z,94209.44
2023-02-25T11:03:33.720Z,94214.97
2023-02-25T11:06:37.888Z,94209.28
2023-02-25T11:09:39.968Z,94206.53
2023-02-25T11:12:44.249Z,94209.56
2023-02-25T11:15:51.123Z,94211.34
2023-02-25T11:18:56.332Z,94196.06
2023-02-25T11:22:08.108Z,94190.44
2023-02-25T11:25:18.870Z,94198.13
2023-02-25T11:28:29.630Z,94182.91
2023-02-25T11:31:38.298Z,94182.75
2023-02-25T11:34:49.142Z,94181.59
2023-02-25T11:37:52.294Z,94189.91
2023-02-25T11:40:54.371Z,94175.09
2023-02-25T11:43:56.416Z,94175.53
2023-02-25T11:47:23.280Z,94167.53
2023-02-25T11:50:32.989Z,94154.56
2023-02-25T11:53:58.160Z,94157.16
2023-02-25T11:57:08.538Z,94147.34
2023-02-25T12:00:24.891Z,94152.63
2023-02-25T12:03:50.932Z,94148.53
2023-02-25T12:07:10.964Z,94136.34
2023-02-25T12:10:35.859Z,94140.69
2023-02-25T12:14:14.359Z,94141.47
2023-02-25T12:17:54.262Z,94145.94
2023-02-25T12:21:40.176Z,94159.94
2023-02-25T12:24:57.496Z,94148.91
2023-02-25T12:28:49.937Z,94143.94
2023-02-25T12:32:23.167Z,94142.09
2023-02-25T12:35:55.402Z,94139.09
2023-02-25T12:39:36.763Z,94145.78
2023-02-25T12:42:49.452Z,94143.72
2023-02-25T12:46:15.402Z,94145.75
2023-02-25T12:49:52.054Z,94136.38
2023-02-25T12:53:17.974Z,94142.47
2023-02-25T12:57:00.218Z,94152.91
2023-02-25T13:00:40.071Z,94150.88
2023-02-25T13:04:02.414Z,94157.44
2023-02-25T13:07:48.062Z,94152.72
2023-02-25T13:10:58.625Z,94152.56
2023-02-25T13:14:37.761Z,94159.53
2023-02-25T13:18:05.554Z,94157.69
2023-02-25T13:21:22.620Z,94158.16
2023-02-25T13:24:45.142Z,94148.78
2023-02-25T13:28:10.161Z,94157.72
2023-02-25T13:34:49.250Z,94152.41
2023-02-25T13:38:02.037Z,94154.09
2023-02-25T13:41:18.217Z,94157.91
2023-02-25T13:45:11.879Z,94162.53
2023-02-25T13:48:49.597Z,94153.13
2023-02-25T13:52:25.378Z,94163.16
2023-02-25T13:55:45.814Z,94157.69
2023-02-25T13:59:08.160Z,94168.28
2023-02-25T14:02:26.122Z,94169.22
2023-02-25T14:05:58.893Z,94166.75
2023-02-25T14:09:16.429Z,94169.81
2023-02-25T14:12:32.559Z,94166.97
2023-02-25T14:15:47.448Z,94163.28
2023-02-25T14:19:04.320Z,94164.03
2023-02-25T14:22:23.420Z,94160.91
2023-02-25T14:25:39.580Z,94161.47
2023-02-25T14:28:49.221Z,94163.94
2023-02-25T14:32:11.954Z,94153.72
2023-02-25T14:35:41.127Z,94158.63
2023-02-25T14:39:12.462Z,94165.38
2023-02-25T14:42:38.500Z,94173.41
2023-02-25T14:45:45.078Z,94167.03
2023-02-25T14:48:58.329Z,94171.13
2023-02-25T14:52:26.823Z,94183.09
2023-02-25T14:55:59.631Z,94191.66
2023-02-25T14:59:47.729Z,94179.63
2023-02-25T15:03:18.011Z,94181.16
2023-02-25T15:06:27.045Z,94192.16
2023-02-25T15:10:01.624Z,94192.94
2023-02-25T15:13:47.864Z,94196.84
2023-02-25T15:17:12.512Z,94198.75
2023-02-25T15:20:26.968Z,94206.31
2023-02-25T15:23:48.955Z,94188.91
2023-02-25T15:26:52.884Z,94194.38
2023-02-25T15:29:59.117Z,94203.13
2023-02-25T15:33:24.074Z,94198.31
2023-02-25T15:36:41.993Z,94199.22
2023-02-25T15:39:50.890Z,94215.69
2023-02-25T15:42:54.696Z,94200.19
2023-02-25T15:46:37.546Z,94197.94
2023-02-25T15:49:45.985Z,94205.03
2023-02-25T15:52:59.139Z,94207.97
2023-02-25T15:56:40.040Z,94213.66
2023-02-25T15:59:47.404Z,94212.53
2023-02-25T16:02:58.480Z,94227.09
2023-02-25T16:06:08.302Z,94212.69
2023-02-25T16:09:14.677Z,94206.63
2023-02-25T16:12:18.585Z,94210.56
2023-02-25T16:15:27.955Z,94217.06
2023-02-25T16:18:35.478Z,94211.41
2023-02-25T16:21:47.165Z,94229.25
2023-02-25T16:24:51.618Z,94222.69
2023-02-25T16:28:01.694Z,94221.06
2023-02-25T16:31:14.588Z,94225.00
2023-02-25T16:34:23.334Z,94222.22
2023-02-25T16:37:34.468Z,94231.03
2023-02-25T16:40:38.855Z,94230.03
2023-02-25T16:43:44.083Z,94230.34
2023-02-25T16:46:50.768Z,94236.53
2023-02-25T16:49:54.859Z,94235.25
2023-02-25T16:53:00.149Z,94255.97
2023-02-25T16:56:03.092Z,94260.75
2023-02-25T16:59:16.027Z,94263.72
2023-02-25T17:02:25.690Z,94273.22
2023-02-25T17:05:31.192Z,94266.44
2023-02-25T17:08:35.976Z,94272.97
2023-02-25T17:11:38.428Z,94276.25
2023-02-25T17:14:46.771Z,94264.16
2023-02-25T17:17:52.742Z,94263.22
2023-02-25T17:21:02.404Z,94279.25
2023-02-25T17:24:11.773Z,94291.38
2023-02-25T17:27:15.554Z,94287.94
2023-02-25T17:30:39.917Z,94292.50
2023-02-25T17:33:49.696Z,94289.22
2023-02-25T17:36:54.660Z,94293.25
2023-02-25T17:40:01.652Z,94292.78
2023-02-25T17:43:23.262Z,94302.28
2023-02-25T17:46:30.766Z,94300.06
2023-02-25T17:49:35.625Z,94308.84
2023-02-25T17:52:40.006Z,94305.81
2023-02-25T17:55:44.708Z,94311.88
2023-02-25T17:58:47.447Z,94310.56
2023-02-25T18:01:54.765Z,94305.81
2023-02-25T18:05:19.196Z,94311.88
2023-02-25T18:08:23.754Z,94318.13
2023-02-25T18:11:32.182Z,94321.41
2023-02-25T18:14:38.413Z,94319.31
2023-02-25T18:17:42.525Z,94317.84
2023-02-25T18:20:45.756Z,94306.44
2023-02-25T18:23:50.071Z,94320.91
2023-02-25T18:27:19.882Z,94328.88
2023-02-25T18:30:25.308Z,94343.81
2023-02-25T18:33:28.750Z,94347.09
2023-02-25T18:36:32.235Z,94335.34
2023-02-25T18:39:37.844Z,94331.03
2023-02-25T18:42:42.177Z,94341.06
2023-02-25T18:45:45.934Z,94326.53
2023-02-25T18:48:49.080Z,94341.56
2023-02-25T18:51:52.134Z,94344.81
2023-02-25T18:54:55.140Z,94347.25
2023-02-25T18:57:59.539Z,94336.31
2023-02-25T19:01:02.309Z,94338.13
2023-02-25T19:04:04.515Z,94328.06
2023-02-25T19:07:11.446Z,94337.47
2023-02-25T19:10:17.746Z,94331.03
2023-02-25T19:13:28.420Z,94327.72
2023-02-25T19:16:31.620Z,94326.59
2023-02-25T19:19:35.127Z,94333.38
2023-02-25T19:22:41.964Z,94336.63
2023-02-25T19:25:47.220Z,94342.56
2023-02-25T19:28:51.346Z,94350.53
2023-02-25T19:31:54.375Z,94341.19
2023-02-25T19:34:57.502Z,94339.59
2023-02-25T19:38:00.758Z,94339.09
2023-02-25T19:41:05.596Z,94345.16
2023-02-25T19:44:09.721Z,94352.03
2023-02-25T19:47:12.231Z,94352.16
2023-02-25T19:50:16.562Z,94354.63
2023-02-25T19:53:19.203Z,94364.81
2023-02-25T19:56:21.915Z,94356.38
2023-02-25T19:59:26.349Z,94364.09
2023-02-25T20:02:30.147Z,94366.75
2023-02-25T20:05:34.540Z,94360.44
2023-02-25T20:08:38.535Z,94352.03
2023-02-25T20:11:43.017Z,94356.84
2023-02-25T20:14:48.102Z,94364.63
2023-02-25T20:17:50.495Z,94362.84
2023-02-25T20:20:53.748Z,94362.41
2023-02-25T20:24:02.056Z,94362.41
2023-02-25T20:27:06.118Z,94372.56
2023-02-25T20:30:16.828Z,94376.28
2023-02-25T20:33:19.975Z,94392.28
2023-02-25T20:36:25.342Z,94394.94
2023-02-25T20:39:52.676Z,94387.91
2023-02-25T20:42:55.526Z,94393.22
2023-02-25T20:46:00.486Z,94387.06
2023-02-25T20:49:05.329Z,94384.75
2023-02-25T20:52:07.938Z,94385.09
2023-02-25T20:55:11.605Z,94387.91
2023-02-25T20:58:14.812Z,94389.63
2023-02-25T21:01:19.414Z,94397.47
2023-02-25T21:04:23.861Z,94396.00
2023-02-25T21:07:26.476Z,94388.97
2023-02-25T21:10:29.730Z,94382.34
2023-02-25T21:13:33.308Z,94393.78
2023-02-25T21:16:37.853Z,94394.91
2023-02-25T21:19:40.796Z,94398.09
2023-02-25T21:22:43.315Z,94397.19
2023-02-25T21:25:47.437Z,94394.84
2023-02-25T21:28:49.842Z,94382.44
2023-02-25T21:31:53.958Z,94391.09
2023-02-25T21:34:57.960Z,94397.16
2023-02-25T21:38:00.032Z,94405.88
2023-02-25T21:41:06.788Z,94402.59
2023-02-25T21:44:09.688Z,94389.88
2023-02-25T21:47:13.944Z,94399.06
2023-02-25T21:50:16.451Z,94397.91
2023-02-25T21:53:18.798Z,94398.00
2023-02-25T21:56:20.958Z,94391.03
2023-02-25T21:59:22.728Z,94395.66
2023-02-25T22:02:26.671Z,94393.53
2023-02-25T22:05:28.381Z,94391.44
2023-02-25T22:08:33.538Z,94402.75
2023-02-25T22:11:37.326Z,94391.84
2023-02-25T22:14:39.116Z,94394.38
2023-02-25T22:17:42.327Z,94393.16
2023-02-25T22:20:44.124Z,94387.84
2023-02-25T22:23:46.159Z,94381.44
2023-02-25T22:26:47.981Z,94387.16
2023-02-25T22:29:49.897Z,94391.81
2023-02-25T22:32:53.047Z,94388.66
2023-02-25T22:35:56.579Z,94383.34
2023-02-25T22:38:58.340Z,94385.81
2023-02-25T22:42:02.524Z,94382.78
2023-02-25T22:45:05.093Z,94390.66
2023-02-25T22:48:08.311Z,94380.97
2023-02-25T22:51:11.465Z,94380.06
2023-02-25T22:54:15.053Z,94388.91
2023-02-25T22:57:16.877Z,94375.59
2023-02-25T23:00:19.291Z,94381.47
2023-02-25T23:03:22.641Z,94385.63
2023-02-25T23:06:37.500Z,94389.19
2023-02-25T23:09:44.448Z,94393.81
2023-02-25T23:12:46.209Z,94390.25
2023-02-25T23:15:48.177Z,94394.38
2023-02-25T23:18:52.223Z,94399.31
2023-02-25T23:21:54.020Z,94397.09
2023-02-25T23:24:55.802Z,94398.19
2023-02-25T23:27:58.133Z,94400.47
2023-02-25T23:31:00.012Z,94407.13
2023-02-25T23:34:05.052Z,94400.47
2023-02-25T23:37:06.816Z,94396.28
2023-02-25T23:40:10.007Z,94393.63
2023-02-25T23:43:11.802Z,94395.75
2023-02-25T23:46:13.576Z,94400.84
2023-02-25T23:49:17.083Z,94404.59
2023-02-25T23:52:18.907Z,94411.03
2023-02-25T23:55:21.048Z,94405.81
2023-02-25T23:58:22.849Z,94411.88
